Terminal Aerodrome Forecast
Issued by NWS

Home | Current Version | Previous Version | Text Only | Print | Product List | Glossary On
Versions: 1 2 3 4 5 6 7 8 9 10 11 12 13 14 15 16 17 18 19 20 21 22 23 24 25 26 27 28 29 30 31 32 33 34 35 36
000
FTUS44 KFWD 011502 AAA
TAFGKY
TAF AMD
KGKY 011502Z 0115/0212 35007KT 3SM -DZ BR OVC004
      TEMPO 0115/0118 1SM -DZ BR
     FM012100 01006KT 3SM -DZ BR OVC006
     FM020300 02010KT 5SM BR VCSH OVC007
     FM020400 02010KT P6SM VCSH OVC007=

USA.gov is the U.S. government's official web portal to all federal, state and local government web resources and services.